sensor_id;sensor_type;location;lat;lon;timestamp;P1;durP1;ratioP1;P2;durP2;ratioP2
18818;SDS011;9537;45.594;9.294;2023-05-10T00:00:07;13.47;;;10.20;;
18818;SDS011;9537;45.594;9.294;2023-05-10T00:01:10;12.20;;;10.07;;
18818;SDS011;9537;45.594;9.294;2023-05-10T00:02:14;12.07;;;10.40;;
18818;SDS011;9537;45.594;9.294;2023-05-10T00:03:14;12.60;;;10.10;;
18818;SDS011;9537;45.594;9.294;2023-05-10T00:04:16;12.77;;;10.40;;
18818;SDS011;9537;45.594;9.294;2023-05-10T00:05:17;13.20;;;10.83;;
18818;SDS011;9537;45.594;9.294;2023-05-10T00:06:20;11.53;;;9.57;;
18818;SDS011;9537;45.594;9.294;2023-05-10T00:07:20;12.63;;;10.53;;
18818;SDS011;9537;45.594;9.294;2023-05-10T00:08:23;12.83;;;10.37;;
18818;SDS011;9537;45.594;9.294;2023-05-10T00:09:23;10.93;;;9.40;;
18818;SDS011;9537;45.594;9.294;2023-05-10T00:10:25;11.70;;;9.63;;
18818;SDS011;9537;45.594;9.294;2023-05-10T00:11:27;10.90;;;9.63;;
18818;SDS011;9537;45.594;9.294;2023-05-10T00:12:29;12.10;;;9.90;;
18818;SDS011;9537;45.594;9.294;2023-05-10T00:13:30;12.33;;;9.97;;
18818;SDS011;9537;45.594;9.294;2023-05-10T00:14:33;13.77;;;9.27;;
18818;SDS011;9537;45.594;9.294;2023-05-10T00:15:34;10.30;;;9.20;;
18818;SDS011;9537;45.594;9.294;2023-05-10T00:16:36;11.03;;;9.13;;
18818;SDS011;9537;45.594;9.294;2023-05-10T00:17:38;10.90;;;9.20;;
18818;SDS011;9537;45.594;9.294;2023-05-10T00:18:40;10.90;;;8.90;;
18818;SDS011;9537;45.594;9.294;2023-05-10T00:19:41;11.40;;;9.70;;
18818;SDS011;9537;45.594;9.294;2023-05-10T00:20:43;11.47;;;9.50;;
18818;SDS011;9537;45.594;9.294;2023-05-10T00:21:46;11.27;;;9.90;;
18818;SDS011;9537;45.594;9.294;2023-05-10T00:22:48;11.70;;;9.83;;
18818;SDS011;9537;45.594;9.294;2023-05-10T00:23:49;11.50;;;10.03;;
18818;SDS011;9537;45.594;9.294;2023-05-10T00:24:51;11.53;;;9.77;;
18818;SDS011;9537;45.594;9.294;2023-05-10T00:25:52;11.97;;;9.20;;
18818;SDS011;9537;45.594;9.294;2023-05-10T00:26:54;12.37;;;9.73;;
18818;SDS011;9537;45.594;9.294;2023-05-10T00:27:55;10.23;;;8.83;;
18818;SDS011;9537;45.594;9.294;2023-05-10T00:28:57;10.83;;;9.30;;
18818;SDS011;9537;45.594;9.294;2023-05-10T00:29:58;12.37;;;10.43;;
18818;SDS011;9537;45.594;9.294;2023-05-10T00:31:01;12.40;;;9.33;;
18818;SDS011;9537;45.594;9.294;2023-05-10T00:32:02;11.00;;;9.30;;
18818;SDS011;9537;45.594;9.294;2023-05-10T00:33:06;10.77;;;9.67;;
18818;SDS011;9537;45.594;9.294;2023-05-10T00:34:07;13.20;;;9.97;;
18818;SDS011;9537;45.594;9.294;2023-05-10T00:35:09;11.20;;;9.80;;
18818;SDS011;9537;45.594;9.294;2023-05-10T00:36:10;11.80;;;9.60;;
18818;SDS011;9537;45.594;9.294;2023-05-10T00:37:13;10.53;;;8.70;;
18818;SDS011;9537;45.594;9.294;2023-05-10T00:38:14;10.00;;;8.70;;
18818;SDS011;9537;45.594;9.294;2023-05-10T00:39:16;11.07;;;9.10;;
18818;SDS011;9537;45.594;9.294;2023-05-10T00:40:17;10.07;;;8.10;;
18818;SDS011;9537;45.594;9.294;2023-05-10T00:41:19;9.40;;;8.37;;
18818;SDS011;9537;45.594;9.294;2023-05-10T00:42:21;9.87;;;8.37;;
18818;SDS011;9537;45.594;9.294;2023-05-10T00:43:23;8.73;;;7.03;;
18818;SDS011;9537;45.594;9.294;2023-05-10T00:44:24;10.07;;;7.97;;
18818;SDS011;9537;45.594;9.294;2023-05-10T00:45:26;8.87;;;7.97;;
18818;SDS011;9537;45.594;9.294;2023-05-10T00:46:27;11.00;;;8.10;;
18818;SDS011;9537;45.594;9.294;2023-05-10T00:47:30;8.97;;;7.33;;
18818;SDS011;9537;45.594;9.294;2023-05-10T00:48:33;9.93;;;7.70;;
18818;SDS011;9537;45.594;9.294;2023-05-10T00:49:36;10.00;;;8.37;;
18818;SDS011;9537;45.594;9.294;2023-05-10T00:50:38;9.50;;;7.50;;
18818;SDS011;9537;45.594;9.294;2023-05-10T00:51:40;10.17;;;8.70;;
18818;SDS011;9537;45.594;9.294;2023-05-10T00:52:43;9.43;;;8.00;;
18818;SDS011;9537;45.594;9.294;2023-05-10T00:53:45;9.10;;;7.93;;
18818;SDS011;9537;45.594;9.294;2023-05-10T00:54:46;10.87;;;8.27;;
18818;SDS011;9537;45.594;9.294;2023-05-10T00:55:49;10.63;;;9.03;;
18818;SDS011;9537;45.594;9.294;2023-05-10T00:56:50;9.63;;;8.00;;
18818;SDS011;9537;45.594;9.294;2023-05-10T00:57:52;10.20;;;8.10;;
18818;SDS011;9537;45.594;9.294;2023-05-10T00:58:53;9.30;;;7.73;;
18818;SDS011;9537;45.594;9.294;2023-05-10T00:59:55;9.50;;;8.00;;
18818;SDS011;9537;45.594;9.294;2023-05-10T01:00:58;11.53;;;8.03;;
18818;SDS011;9537;45.594;9.294;2023-05-10T01:02:01;9.90;;;8.07;;
18818;SDS011;9537;45.594;9.294;2023-05-10T01:03:02;8.67;;;7.60;;
18818;SDS011;9537;45.594;9.294;2023-05-10T01:04:06;9.93;;;8.07;;
18818;SDS011;9537;45.594;9.294;2023-05-10T01:05:07;8.97;;;7.53;;
18818;SDS011;9537;45.594;9.294;2023-05-10T01:06:09;9.50;;;7.70;;
18818;SDS011;9537;45.594;9.294;2023-05-10T01:07:11;9.23;;;7.70;;
18818;SDS011;9537;45.594;9.294;2023-05-10T01:08:13;8.87;;;7.70;;
18818;SDS011;9537;45.594;9.294;2023-05-10T01:09:14;9.43;;;7.87;;
18818;SDS011;9537;45.594;9.294;2023-05-10T01:10:16;9.37;;;7.10;;
18818;SDS011;9537;45.594;9.294;2023-05-10T01:11:17;10.10;;;7.97;;
18818;SDS011;9537;45.594;9.294;2023-05-10T01:12:20;8.73;;;6.83;;
18818;SDS011;9537;45.594;9.294;2023-05-10T01:13:25;8.53;;;6.90;;
18818;SDS011;9537;45.594;9.294;2023-05-10T01:14:34;8.10;;;6.73;;
18818;SDS011;9537;45.594;9.294;2023-05-10T01:15:36;8.53;;;7.30;;
18818;SDS011;9537;45.594;9.294;2023-05-10T01:16:39;8.23;;;7.17;;
18818;SDS011;9537;45.594;9.294;2023-05-10T01:17:43;8.03;;;6.67;;
18818;SDS011;9537;45.594;9.294;2023-05-10T01:18:47;9.70;;;7.23;;
18818;SDS011;9537;45.594;9.294;2023-05-10T01:19:51;9.23;;;7.50;;
18818;SDS011;9537;45.594;9.294;2023-05-10T01:20:55;7.13;;;6.43;;
18818;SDS011;9537;45.594;9.294;2023-05-10T01:22:09;10.23;;;6.73;;
18818;SDS011;9537;45.594;9.294;2023-05-10T01:23:36;7.50;;;6.37;;
18818;SDS011;9537;45.594;9.294;2023-05-10T01:25:19;9.20;;;6.20;;
18818;SDS011;9537;45.594;9.294;2023-05-10T01:27:08;5.97;;;5.33;;
18818;SDS011;9537;45.594;9.294;2023-05-10T01:28:39;8.83;;;5.83;;
18818;SDS011;9537;45.594;9.294;2023-05-10T01:31:30;6.67;;;5.20;;
18818;SDS011;9537;45.594;9.294;2023-05-10T01:32:44;5.53;;;4.60;;
18818;SDS011;9537;45.594;9.294;2023-05-10T01:33:52;7.00;;;4.83;;
18818;SDS011;9537;45.594;9.294;2023-05-10T01:34:59;5.53;;;4.37;;
18818;SDS011;9537;45.594;9.294;2023-05-10T01:36:05;6.53;;;5.27;;
18818;SDS011;9537;45.594;9.294;2023-05-10T01:37:13;5.87;;;4.83;;
18818;SDS011;9537;45.594;9.294;2023-05-10T01:38:21;7.97;;;5.10;;
18818;SDS011;9537;45.594;9.294;2023-05-10T01:39:32;7.97;;;4.40;;
18818;SDS011;9537;45.594;9.294;2023-05-10T01:40:39;6.30;;;5.20;;
18818;SDS011;9537;45.594;9.294;2023-05-10T01:41:48;4.87;;;4.37;;
18818;SDS011;9537;45.594;9.294;2023-05-10T01:42:56;5.10;;;4.50;;
18818;SDS011;9537;45.594;9.294;2023-05-10T01:44:02;6.00;;;4.90;;
18818;SDS011;9537;45.594;9.294;2023-05-10T01:45:19;5.47;;;4.80;;
18818;SDS011;9537;45.594;9.294;2023-05-10T01:46:27;6.07;;;4.50;;
18818;SDS011;9537;45.594;9.294;2023-05-10T01:47:34;5.00;;;4.50;;
18818;SDS011;9537;45.594;9.294;2023-05-10T01:48:42;6.07;;;4.67;;
18818;SDS011;9537;45.594;9.294;2023-05-10T01:49:50;7.17;;;4.83;;
18818;SDS011;9537;45.594;9.294;2023-05-10T01:50:53;5.13;;;4.13;;
18818;SDS011;9537;45.594;9.294;2023-05-10T01:52:00;6.23;;;4.10;;
18818;SDS011;9537;45.594;9.294;2023-05-10T01:53:09;8.10;;;4.83;;
18818;SDS011;9537;45.594;9.294;2023-05-10T01:54:13;6.23;;;4.50;;
18818;SDS011;9537;45.594;9.294;2023-05-10T01:55:18;5.67;;;4.07;;
18818;SDS011;9537;45.594;9.294;2023-05-10T01:56:24;6.37;;;4.17;;
18818;SDS011;9537;45.594;9.294;2023-05-10T01:57:32;4.93;;;4.13;;
18818;SDS011;9537;45.594;9.294;2023-05-10T01:58:35;4.00;;;3.60;;
18818;SDS011;9537;45.594;9.294;2023-05-10T01:59:40;4.27;;;3.87;;
18818;SDS011;9537;45.594;9.294;2023-05-10T02:00:47;6.00;;;4.00;;
18818;SDS011;9537;45.594;9.294;2023-05-10T02:01:50;4.30;;;3.90;;
18818;SDS011;9537;45.594;9.294;2023-05-10T02:02:54;4.47;;;3.80;;
18818;SDS011;9537;45.594;9.294;2023-05-10T02:03:58;5.93;;;4.17;;
18818;SDS011;9537;45.594;9.294;2023-05-10T02:05:01;5.73;;;3.57;;
18818;SDS011;9537;45.594;9.294;2023-05-10T02:06:04;4.53;;;3.83;;
18818;SDS011;9537;45.594;9.294;2023-05-10T02:07:08;4.30;;;3.60;;
18818;SDS011;9537;45.594;9.294;2023-05-10T02:08:10;3.73;;;3.33;;
18818;SDS011;9537;45.594;9.294;2023-05-10T02:09:15;9.37;;;3.60;;
18818;SDS011;9537;45.594;9.294;2023-05-10T02:10:18;3.90;;;3.33;;
18818;SDS011;9537;45.594;9.294;2023-05-10T02:11:21;3.90;;;3.50;;
18818;SDS011;9537;45.594;9.294;2023-05-10T02:12:23;4.03;;;3.63;;
18818;SDS011;9537;45.594;9.294;2023-05-10T02:13:26;4.30;;;3.30;;
18818;SDS011;9537;45.594;9.294;2023-05-10T02:14:29;5.03;;;3.57;;
18818;SDS011;9537;45.594;9.294;2023-05-10T02:15:33;5.20;;;3.60;;
18818;SDS011;9537;45.594;9.294;2023-05-10T02:16:36;4.70;;;3.53;;
18818;SDS011;9537;45.594;9.294;2023-05-10T02:17:40;4.10;;;3.70;;
18818;SDS011;9537;45.594;9.294;2023-05-10T02:18:43;7.07;;;3.80;;
18818;SDS011;9537;45.594;9.294;2023-05-10T02:19:47;4.73;;;4.00;;
18818;SDS011;9537;45.594;9.294;2023-05-10T02:20:50;6.47;;;4.00;;
18818;SDS011;9537;45.594;9.294;2023-05-10T02:21:54;4.80;;;3.70;;
18818;SDS011;9537;45.594;9.294;2023-05-10T02:22:56;4.83;;;3.60;;
18818;SDS011;9537;45.594;9.294;2023-05-10T02:24:00;5.47;;;3.90;;
18818;SDS011;9537;45.594;9.294;2023-05-10T02:25:03;5.00;;;3.90;;
18818;SDS011;9537;45.594;9.294;2023-05-10T02:26:06;4.67;;;3.77;;
18818;SDS011;9537;45.594;9.294;2023-05-10T02:27:09;4.93;;;4.20;;
18818;SDS011;9537;45.594;9.294;2023-05-10T02:28:12;5.10;;;3.93;;
18818;SDS011;9537;45.594;9.294;2023-05-10T02:29:17;4.47;;;3.93;;
18818;SDS011;9537;45.594;9.294;2023-05-10T02:30:19;4.77;;;4.20;;
18818;SDS011;9537;45.594;9.294;2023-05-10T02:31:23;4.37;;;3.77;;
18818;SDS011;9537;45.594;9.294;2023-05-10T02:32:24;4.87;;;3.93;;
18818;SDS011;9537;45.594;9.294;2023-05-10T02:33:29;5.80;;;4.10;;
18818;SDS011;9537;45.594;9.294;2023-05-10T02:34:32;5.60;;;4.20;;
18818;SDS011;9537;45.594;9.294;2023-05-10T02:35:36;6.90;;;4.70;;
18818;SDS011;9537;45.594;9.294;2023-05-10T02:36:39;5.73;;;4.03;;
18818;SDS011;9537;45.594;9.294;2023-05-10T02:37:43;5.47;;;4.10;;
18818;SDS011;9537;45.594;9.294;2023-05-10T02:38:44;4.30;;;3.70;;
18818;SDS011;9537;45.594;9.294;2023-05-10T02:39:48;6.07;;;4.40;;
18818;SDS011;9537;45.594;9.294;2023-05-10T02:40:51;4.80;;;4.00;;
18818;SDS011;9537;45.594;9.294;2023-05-10T02:41:55;4.83;;;3.80;;
18818;SDS011;9537;45.594;9.294;2023-05-10T02:42:58;5.13;;;3.80;;
18818;SDS011;9537;45.594;9.294;2023-05-10T02:44:02;4.63;;;4.03;;
18818;SDS011;9537;45.594;9.294;2023-05-10T02:45:07;5.33;;;3.80;;
18818;SDS011;9537;45.594;9.294;2023-05-10T02:46:13;4.63;;;4.00;;
18818;SDS011;9537;45.594;9.294;2023-05-10T02:47:14;4.53;;;3.83;;
18818;SDS011;9537;45.594;9.294;2023-05-10T02:48:16;5.77;;;4.23;;
18818;SDS011;9537;45.594;9.294;2023-05-10T02:49:17;6.17;;;4.17;;
18818;SDS011;9537;45.594;9.294;2023-05-10T02:50:20;7.00;;;4.50;;
18818;SDS011;9537;45.594;9.294;2023-05-10T02:51:24;5.50;;;4.80;;
18818;SDS011;9537;45.594;9.294;2023-05-10T02:52:30;4.57;;;3.90;;
18818;SDS011;9537;45.594;9.294;2023-05-10T02:53:41;4.97;;;4.20;;
18818;SDS011;9537;45.594;9.294;2023-05-10T02:54:49;4.57;;;4.17;;
18818;SDS011;9537;45.594;9.294;2023-05-10T02:55:53;6.70;;;4.40;;
18818;SDS011;9537;45.594;9.294;2023-05-10T02:56:59;5.00;;;4.40;;
18818;SDS011;9537;45.594;9.294;2023-05-10T02:58:04;6.27;;;4.70;;
18818;SDS011;9537;45.594;9.294;2023-05-10T02:59:06;5.83;;;4.47;;
18818;SDS011;9537;45.594;9.294;2023-05-10T03:00:07;5.53;;;4.17;;
18818;SDS011;9537;45.594;9.294;2023-05-10T03:01:10;4.90;;;4.40;;
18818;SDS011;9537;45.594;9.294;2023-05-10T03:02:11;5.10;;;4.60;;
18818;SDS011;9537;45.594;9.294;2023-05-10T03:03:14;5.63;;;4.60;;
18818;SDS011;9537;45.594;9.294;2023-05-10T03:04:15;6.70;;;4.70;;
18818;SDS011;9537;45.594;9.294;2023-05-10T03:05:17;5.50;;;4.93;;
18818;SDS011;9537;45.594;9.294;2023-05-10T03:06:18;5.10;;;4.20;;
18818;SDS011;9537;45.594;9.294;2023-05-10T03:07:21;4.97;;;4.23;;
18818;SDS011;9537;45.594;9.294;2023-05-10T03:08:23;4.47;;;4.07;;
18818;SDS011;9537;45.594;9.294;2023-05-10T03:09:25;6.40;;;4.43;;
18818;SDS011;9537;45.594;9.294;2023-05-10T03:10:27;4.83;;;4.23;;
18818;SDS011;9537;45.594;9.294;2023-05-10T03:11:35;4.80;;;4.30;;
18818;SDS011;9537;45.594;9.294;2023-05-10T03:12:52;4.60;;;3.97;;
18818;SDS011;9537;45.594;9.294;2023-05-10T03:14:07;4.37;;;3.70;;
18818;SDS011;9537;45.594;9.294;2023-05-10T03:15:17;4.83;;;4.37;;
18818;SDS011;9537;45.594;9.294;2023-05-10T03:16:25;5.27;;;3.60;;
18818;SDS011;9537;45.594;9.294;2023-05-10T03:17:30;4.43;;;3.93;;
18818;SDS011;9537;45.594;9.294;2023-05-10T03:18:40;4.20;;;3.40;;
18818;SDS011;9537;45.594;9.294;2023-05-10T03:19:46;4.73;;;3.80;;
18818;SDS011;9537;45.594;9.294;2023-05-10T03:20:54;4.73;;;3.70;;
18818;SDS011;9537;45.594;9.294;2023-05-10T03:22:02;5.50;;;3.30;;
18818;SDS011;9537;45.594;9.294;2023-05-10T03:23:13;3.57;;;3.20;;
18818;SDS011;9537;45.594;9.294;2023-05-10T03:24:23;4.03;;;3.37;;
18818;SDS011;9537;45.594;9.294;2023-05-10T03:25:28;4.63;;;3.30;;
18818;SDS011;9537;45.594;9.294;2023-05-10T03:26:31;4.67;;;3.97;;
18818;SDS011;9537;45.594;9.294;2023-05-10T03:27:35;3.97;;;3.67;;
18818;SDS011;9537;45.594;9.294;2023-05-10T03:28:39;3.80;;;3.30;;
18818;SDS011;9537;45.594;9.294;2023-05-10T03:29:43;3.87;;;3.30;;
18818;SDS011;9537;45.594;9.294;2023-05-10T03:30:46;4.20;;;3.47;;
18818;SDS011;9537;45.594;9.294;2023-05-10T03:31:48;6.20;;;3.60;;
18818;SDS011;9537;45.594;9.294;2023-05-10T03:32:50;5.03;;;3.60;;
18818;SDS011;9537;45.594;9.294;2023-05-10T03:33:52;4.33;;;3.40;;
18818;SDS011;9537;45.594;9.294;2023-05-10T03:34:54;6.77;;;3.30;;
18818;SDS011;9537;45.594;9.294;2023-05-10T03:35:56;3.50;;;3.00;;
18818;SDS011;9537;45.594;9.294;2023-05-10T03:36:57;5.13;;;3.33;;
18818;SDS011;9537;45.594;9.294;2023-05-10T03:37:59;4.87;;;3.27;;
18818;SDS011;9537;45.594;9.294;2023-05-10T03:39:01;5.53;;;3.30;;
18818;SDS011;9537;45.594;9.294;2023-05-10T03:40:04;3.57;;;3.13;;
18818;SDS011;9537;45.594;9.294;2023-05-10T03:41:06;4.27;;;3.17;;
18818;SDS011;9537;45.594;9.294;2023-05-10T03:42:08;4.87;;;3.50;;
18818;SDS011;9537;45.594;9.294;2023-05-10T03:43:12;5.10;;;3.37;;
18818;SDS011;9537;45.594;9.294;2023-05-10T03:44:14;3.60;;;3.30;;
18818;SDS011;9537;45.594;9.294;2023-05-10T03:45:15;4.37;;;3.27;;
18818;SDS011;9537;45.594;9.294;2023-05-10T03:46:17;4.83;;;3.60;;
18818;SDS011;9537;45.594;9.294;2023-05-10T03:47:18;4.70;;;3.60;;
18818;SDS011;9537;45.594;9.294;2023-05-10T03:48:20;6.70;;;3.63;;
18818;SDS011;9537;45.594;9.294;2023-05-10T03:49:21;3.70;;;3.40;;
18818;SDS011;9537;45.594;9.294;2023-05-10T03:50:23;4.50;;;3.70;;
18818;SDS011;9537;45.594;9.294;2023-05-10T03:51:25;3.87;;;3.40;;
18818;SDS011;9537;45.594;9.294;2023-05-10T03:52:28;5.37;;;3.73;;
18818;SDS011;9537;45.594;9.294;2023-05-10T03:53:30;4.10;;;3.40;;
18818;SDS011;9537;45.594;9.294;2023-05-10T03:54:33;5.20;;;3.40;;
18818;SDS011;9537;45.594;9.294;2023-05-10T03:55:35;4.40;;;3.30;;
18818;SDS011;9537;45.594;9.294;2023-05-10T03:56:36;4.23;;;3.63;;
18818;SDS011;9537;45.594;9.294;2023-05-10T03:57:38;3.60;;;3.13;;
18818;SDS011;9537;45.594;9.294;2023-05-10T03:58:39;3.60;;;3.23;;
18818;SDS011;9537;45.594;9.294;2023-05-10T03:59:41;3.87;;;3.40;;
18818;SDS011;9537;45.594;9.294;2023-05-10T04:00:43;3.93;;;3.20;;
18818;SDS011;9537;45.594;9.294;2023-05-10T04:01:45;4.20;;;3.20;;
18818;SDS011;9537;45.594;9.294;2023-05-10T04:02:46;3.93;;;3.30;;
18818;SDS011;9537;45.594;9.294;2023-05-10T04:03:48;3.27;;;2.77;;
18818;SDS011;9537;45.594;9.294;2023-05-10T04:04:50;4.27;;;3.37;;
18818;SDS011;9537;45.594;9.294;2023-05-10T04:05:58;4.00;;;3.00;;
18818;SDS011;9537;45.594;9.294;2023-05-10T04:06:59;3.87;;;3.27;;
18818;SDS011;9537;45.594;9.294;2023-05-10T04:08:01;4.73;;;3.10;;
18818;SDS011;9537;45.594;9.294;2023-05-10T04:09:03;3.63;;;3.07;;
18818;SDS011;9537;45.594;9.294;2023-05-10T04:10:07;11.93;;;4.00;;
18818;SDS011;9537;45.594;9.294;2023-05-10T04:11:09;5.50;;;3.10;;
18818;SDS011;9537;45.594;9.294;2023-05-10T04:12:13;4.03;;;3.40;;
18818;SDS011;9537;45.594;9.294;2023-05-10T04:13:14;3.67;;;2.97;;
18818;SDS011;9537;45.594;9.294;2023-05-10T04:14:16;4.97;;;3.23;;
18818;SDS011;9537;45.594;9.294;2023-05-10T04:15:17;3.60;;;3.30;;
18818;SDS011;9537;45.594;9.294;2023-05-10T04:16:19;3.10;;;2.80;;
18818;SDS011;9537;45.594;9.294;2023-05-10T04:17:20;4.70;;;3.50;;
18818;SDS011;9537;45.594;9.294;2023-05-10T04:18:22;3.80;;;3.23;;
18818;SDS011;9537;45.594;9.294;2023-05-10T04:19:24;3.20;;;2.90;;
18818;SDS011;9537;45.594;9.294;2023-05-10T04:20:26;3.57;;;3.27;;
18818;SDS011;9537;45.594;9.294;2023-05-10T04:21:26;5.23;;;3.10;;
18818;SDS011;9537;45.594;9.294;2023-05-10T04:22:29;4.00;;;3.00;;
18818;SDS011;9537;45.594;9.294;2023-05-10T04:23:30;4.47;;;2.97;;
18818;SDS011;9537;45.594;9.294;2023-05-10T04:24:32;5.47;;;2.90;;
18818;SDS011;9537;45.594;9.294;2023-05-10T04:25:35;3.10;;;2.80;;
18818;SDS011;9537;45.594;9.294;2023-05-10T04:26:37;3.97;;;3.10;;
18818;SDS011;9537;45.594;9.294;2023-05-10T04:27:38;3.23;;;2.90;;
18818;SDS011;9537;45.594;9.294;2023-05-10T04:28:40;3.20;;;2.83;;
18818;SDS011;9537;45.594;9.294;2023-05-10T04:29:41;3.00;;;2.50;;
18818;SDS011;9537;45.594;9.294;2023-05-10T04:30:43;3.70;;;2.70;;
18818;SDS011;9537;45.594;9.294;2023-05-10T04:31:44;5.07;;;3.20;;
18818;SDS011;9537;45.594;9.294;2023-05-10T04:32:46;3.43;;;3.00;;
18818;SDS011;9537;45.594;9.294;2023-05-10T04:33:48;5.67;;;3.07;;
18818;SDS011;9537;45.594;9.294;2023-05-10T04:34:50;3.10;;;2.77;;
18818;SDS011;9537;45.594;9.294;2023-05-10T04:35:52;2.93;;;2.63;;
18818;SDS011;9537;45.594;9.294;2023-05-10T04:36:53;6.13;;;2.90;;
18818;SDS011;9537;45.594;9.294;2023-05-10T04:37:55;5.07;;;3.13;;
18818;SDS011;9537;45.594;9.294;2023-05-10T04:38:56;3.40;;;3.03;;
18818;SDS011;9537;45.594;9.294;2023-05-10T04:39:58;2.77;;;2.50;;
18818;SDS011;9537;45.594;9.294;2023-05-10T04:41:07;3.67;;;2.73;;
18818;SDS011;9537;45.594;9.294;2023-05-10T04:42:11;3.97;;;3.17;;
18818;SDS011;9537;45.594;9.294;2023-05-10T04:43:12;3.67;;;3.37;;
18818;SDS011;9537;45.594;9.294;2023-05-10T04:44:14;3.30;;;3.00;;
18818;SDS011;9537;45.594;9.294;2023-05-10T04:45:15;5.57;;;2.87;;
18818;SDS011;9537;45.594;9.294;2023-05-10T04:46:17;3.93;;;3.00;;
18818;SDS011;9537;45.594;9.294;2023-05-10T04:47:19;2.90;;;2.70;;
18818;SDS011;9537;45.594;9.294;2023-05-10T04:48:20;2.80;;;2.50;;
18818;SDS011;9537;45.594;9.294;2023-05-10T04:49:22;3.73;;;2.80;;
18818;SDS011;9537;45.594;9.294;2023-05-10T04:50:23;3.57;;;2.70;;
18818;SDS011;9537;45.594;9.294;2023-05-10T04:51:25;3.57;;;2.87;;
18818;SDS011;9537;45.594;9.294;2023-05-10T04:52:26;3.50;;;3.00;;
18818;SDS011;9537;45.594;9.294;2023-05-10T04:53:28;2.87;;;2.57;;
18818;SDS011;9537;45.594;9.294;2023-05-10T04:54:29;4.37;;;2.63;;
18818;SDS011;9537;45.594;9.294;2023-05-10T04:55:31;2.90;;;2.60;;
18818;SDS011;9537;45.594;9.294;2023-05-10T04:56:34;3.63;;;2.57;;
18818;SDS011;9537;45.594;9.294;2023-05-10T04:57:36;2.50;;;2.30;;
18818;SDS011;9537;45.594;9.294;2023-05-10T04:58:37;3.67;;;2.43;;
18818;SDS011;9537;45.594;9.294;2023-05-10T04:59:39;3.40;;;2.40;;
18818;SDS011;9537;45.594;9.294;2023-05-10T05:00:40;3.37;;;2.30;;
18818;SDS011;9537;45.594;9.294;2023-05-10T05:01:42;3.53;;;3.23;;
18818;SDS011;9537;45.594;9.294;2023-05-10T05:02:43;3.73;;;2.60;;
18818;SDS011;9537;45.594;9.294;2023-05-10T05:03:45;3.63;;;2.43;;
18818;SDS011;9537;45.594;9.294;2023-05-10T05:04:47;3.20;;;2.43;;
18818;SDS011;9537;45.594;9.294;2023-05-10T05:05:49;3.87;;;2.57;;
18818;SDS011;9537;45.594;9.294;2023-05-10T05:06:50;3.13;;;2.77;;
18818;SDS011;9537;45.594;9.294;2023-05-10T05:07:52;3.10;;;2.50;;
18818;SDS011;9537;45.594;9.294;2023-05-10T05:08:53;3.07;;;2.60;;
18818;SDS011;9537;45.594;9.294;2023-05-10T05:09:55;4.20;;;2.70;;
18818;SDS011;9537;45.594;9.294;2023-05-10T05:10:56;3.10;;;2.50;;
18818;SDS011;9537;45.594;9.294;2023-05-10T05:12:00;3.37;;;2.40;;
18818;SDS011;9537;45.594;9.294;2023-05-10T05:13:01;5.70;;;2.70;;
18818;SDS011;9537;45.594;9.294;2023-05-10T05:14:03;4.83;;;2.80;;
18818;SDS011;9537;45.594;9.294;2023-05-10T05:15:05;2.97;;;2.70;;
18818;SDS011;9537;45.594;9.294;2023-05-10T05:16:08;2.90;;;2.60;;
18818;SDS011;9537;45.594;9.294;2023-05-10T05:17:10;2.93;;;2.53;;
18818;SDS011;9537;45.594;9.294;2023-05-10T05:18:12;3.80;;;2.43;;
18818;SDS011;9537;45.594;9.294;2023-05-10T05:19:13;3.37;;;2.80;;
18818;SDS011;9537;45.594;9.294;2023-05-10T05:20:15;3.30;;;2.60;;
18818;SDS011;9537;45.594;9.294;2023-05-10T05:21:17;2.83;;;2.60;;
18818;SDS011;9537;45.594;9.294;2023-05-10T05:22:20;4.00;;;2.73;;
18818;SDS011;9537;45.594;9.294;2023-05-10T05:23:27;3.03;;;2.47;;
18818;SDS011;9537;45.594;9.294;2023-05-10T05:24:32;2.90;;;2.60;;
18818;SDS011;9537;45.594;9.294;2023-05-10T05:25:36;3.97;;;2.90;;
18818;SDS011;9537;45.594;9.294;2023-05-10T05:26:38;3.07;;;2.60;;
18818;SDS011;9537;45.594;9.294;2023-05-10T05:27:40;2.83;;;2.60;;
18818;SDS011;9537;45.594;9.294;2023-05-10T05:28:42;4.43;;;3.00;;
18818;SDS011;9537;45.594;9.294;2023-05-10T05:29:43;4.27;;;2.80;;
18818;SDS011;9537;45.594;9.294;2023-05-10T05:30:45;3.40;;;2.83;;
18818;SDS011;9537;45.594;9.294;2023-05-10T05:31:47;3.83;;;2.70;;
18818;SDS011;9537;45.594;9.294;2023-05-10T05:32:48;3.23;;;2.60;;
18818;SDS011;9537;45.594;9.294;2023-05-10T05:33:50;3.10;;;2.80;;
18818;SDS011;9537;45.594;9.294;2023-05-10T05:34:52;3.13;;;2.60;;
18818;SDS011;9537;45.594;9.294;2023-05-10T05:35:54;3.33;;;2.73;;
18818;SDS011;9537;45.594;9.294;2023-05-10T05:36:55;3.13;;;2.83;;
18818;SDS011;9537;45.594;9.294;2023-05-10T05:37:57;4.10;;;2.77;;
18818;SDS011;9537;45.594;9.294;2023-05-10T05:38:59;3.77;;;3.10;;
18818;SDS011;9537;45.594;9.294;2023-05-10T05:40:01;3.60;;;2.80;;
18818;SDS011;9537;45.594;9.294;2023-05-10T05:41:03;5.60;;;2.97;;
18818;SDS011;9537;45.594;9.294;2023-05-10T05:42:05;4.27;;;2.93;;
18818;SDS011;9537;45.594;9.294;2023-05-10T05:43:07;3.90;;;2.83;;
18818;SDS011;9537;45.594;9.294;2023-05-10T05:44:09;3.20;;;2.90;;
18818;SDS011;9537;45.594;9.294;2023-05-10T05:45:10;11.23;;;3.20;;
18818;SDS011;9537;45.594;9.294;2023-05-10T05:46:13;4.47;;;2.90;;
18818;SDS011;9537;45.594;9.294;2023-05-10T05:47:14;3.50;;;2.93;;
18818;SDS011;9537;45.594;9.294;2023-05-10T05:48:17;3.30;;;2.90;;
18818;SDS011;9537;45.594;9.294;2023-05-10T05:49:18;3.37;;;3.07;;
18818;SDS011;9537;45.594;9.294;2023-05-10T05:50:20;3.47;;;3.17;;
18818;SDS011;9537;45.594;9.294;2023-05-10T05:51:20;5.20;;;3.20;;
18818;SDS011;9537;45.594;9.294;2023-05-10T05:52:22;3.57;;;3.00;;
18818;SDS011;9537;45.594;9.294;2023-05-10T05:53:24;3.50;;;3.20;;
18818;SDS011;9537;45.594;9.294;2023-05-10T05:54:27;3.60;;;2.83;;
18818;SDS011;9537;45.594;9.294;2023-05-10T05:55:28;6.20;;;3.03;;
18818;SDS011;9537;45.594;9.294;2023-05-10T05:56:31;5.87;;;3.00;;
18818;SDS011;9537;45.594;9.294;2023-05-10T05:57:33;5.00;;;3.33;;
18818;SDS011;9537;45.594;9.294;2023-05-10T05:58:36;7.17;;;3.33;;
18818;SDS011;9537;45.594;9.294;2023-05-10T05:59:38;3.03;;;2.73;;
18818;SDS011;9537;45.594;9.294;2023-05-10T06:00:44;5.63;;;3.30;;
18818;SDS011;9537;45.594;9.294;2023-05-10T06:01:45;5.57;;;3.63;;
18818;SDS011;9537;45.594;9.294;2023-05-10T06:02:47;4.27;;;3.20;;
18818;SDS011;9537;45.594;9.294;2023-05-10T06:03:48;4.30;;;3.53;;
18818;SDS011;9537;45.594;9.294;2023-05-10T06:04:50;3.40;;;3.10;;
18818;SDS011;9537;45.594;9.294;2023-05-10T06:05:51;3.67;;;3.20;;
18818;SDS011;9537;45.594;9.294;2023-05-10T06:06:53;4.27;;;3.50;;
18818;SDS011;9537;45.594;9.294;2023-05-10T06:07:55;5.17;;;3.30;;
18818;SDS011;9537;45.594;9.294;2023-05-10T06:08:57;4.83;;;3.40;;
18818;SDS011;9537;45.594;9.294;2023-05-10T06:09:59;3.53;;;2.97;;
18818;SDS011;9537;45.594;9.294;2023-05-10T06:11:00;5.23;;;3.10;;
18818;SDS011;9537;45.594;9.294;2023-05-10T06:12:02;4.83;;;3.37;;
18818;SDS011;9537;45.594;9.294;2023-05-10T06:13:03;3.70;;;3.40;;
18818;SDS011;9537;45.594;9.294;2023-05-10T06:14:07;5.10;;;3.37;;
18818;SDS011;9537;45.594;9.294;2023-05-10T06:15:08;3.90;;;3.13;;
18818;SDS011;9537;45.594;9.294;2023-05-10T06:16:11;3.33;;;2.80;;
18818;SDS011;9537;45.594;9.294;2023-05-10T06:17:13;3.07;;;2.77;;
18818;SDS011;9537;45.594;9.294;2023-05-10T06:18:14;5.30;;;3.20;;
18818;SDS011;9537;45.594;9.294;2023-05-10T06:19:17;4.47;;;3.13;;
18818;SDS011;9537;45.594;9.294;2023-05-10T06:20:18;3.83;;;3.43;;
18818;SDS011;9537;45.594;9.294;2023-05-10T06:21:20;4.10;;;3.33;;
18818;SDS011;9537;45.594;9.294;2023-05-10T06:22:21;2.90;;;2.70;;
18818;SDS011;9537;45.594;9.294;2023-05-10T06:23:23;4.57;;;3.10;;
18818;SDS011;9537;45.594;9.294;2023-05-10T06:24:25;3.47;;;3.17;;
18818;SDS011;9537;45.594;9.294;2023-05-10T06:25:27;4.30;;;3.20;;
18818;SDS011;9537;45.594;9.294;2023-05-10T06:26:29;4.47;;;3.40;;
18818;SDS011;9537;45.594;9.294;2023-05-10T06:27:31;3.80;;;3.10;;
18818;SDS011;9537;45.594;9.294;2023-05-10T06:28:33;3.73;;;3.40;;